Time;durP1;ratioP1;P1;durP2;ratioP2;P2;SDS_P1;SDS_P2;PMS_P1;PMS_P2;Temp;Humidity;BMP_temperature;BMP_pressure;BME280_temperature;BME280_humidity;BME280_pressure;Samples;Min_cycle;Max_cycle;Signal;HPM_P1;HPM_P2
2022/05/17 00:00:27;;;;;;;4.03;2.63;;;15.70;99.90;;;;;;5054749;28;20504;-50
2022/05/17 00:02:53;;;;;;;6.00;2.83;;;15.60;99.90;;;;;;5054677;28;20460;-50
2022/05/17 00:05:19;;;;;;;4.65;2.85;;;15.60;99.90;;;;;;5054504;28;20032;-50
2022/05/17 00:07:44;;;;;;;5.95;3.38;;;15.50;99.90;;;;;;5054458;28;20427;-53
2022/05/17 00:10:11;;;;;;;4.07;2.53;;;15.50;99.90;;;;;;5054784;28;20029;-50
2022/05/17 00:12:38;;;;;;;3.70;2.58;;;15.50;99.90;;;;;;5054288;28;20021;-49
2022/05/17 00:15:04;;;;;;;6.07;2.78;;;15.40;99.90;;;;;;5054338;28;20029;-49
2022/05/17 00:17:30;;;;;;;4.50;3.10;;;15.40;99.90;;;;;;5053934;28;20464;-51
2022/05/17 00:19:56;;;;;;;8.82;3.35;;;15.40;99.90;;;;;;5053449;28;20032;-53
2022/05/17 00:22:22;;;;;;;6.78;4.15;;;15.40;99.90;;;;;;5054190;28;20139;-53
2022/05/17 00:24:48;;;;;;;7.65;3.13;;;15.50;99.90;;;;;;5054177;28;20036;-49
2022/05/17 00:27:13;;;;;;;4.53;2.58;;;15.50;99.90;;;;;;5053881;28;20030;-53
2022/05/17 00:29:39;;;;;;;4.65;2.00;;;15.60;99.90;;;;;;5054102;28;20033;-50
2022/05/17 00:32:05;;;;;;;7.47;2.10;;;15.70;99.90;;;;;;5054197;28;20083;-52
2022/05/17 00:34:31;;;;;;;3.50;2.30;;;15.70;99.90;;;;;;5053957;28;20365;-54
2022/05/17 00:36:57;;;;;;;7.43;2.47;;;15.80;99.90;;;;;;5053971;28;20036;-52
2022/05/17 00:39:23;;;;;;;6.90;3.00;;;15.80;99.90;;;;;;5054048;28;20021;-51
2022/05/17 00:41:49;;;;;;;3.40;2.30;;;15.70;99.90;;;;;;5053832;28;20074;-50
2022/05/17 00:47:07;;;;;;;2.13;1.80;;;15.60;99.90;;;;;;5053804;28;20076;-50
2022/05/17 00:49:40;;;;;;;10.65;2.72;;;15.60;99.90;;;;;;5053763;28;20029;-51
2022/05/17 00:52:30;;;;;;;4.80;2.25;;;15.50;99.90;;;;;;5053962;28;20039;-48
2022/05/17 00:55:03;;;;;;;2.53;2.10;;;15.50;99.90;;;;;;5053730;28;20468;-47
2022/05/17 00:57:32;;;;;;;11.15;2.45;;;15.50;99.90;;;;;;5053817;28;20090;-55
2022/05/17 01:00:03;;;;;;;6.30;2.00;;;15.50;99.90;;;;;;5053656;28;20025;-50
2022/05/17 01:02:29;;;;;;;7.97;2.97;;;15.40;99.90;;;;;;5052249;28;20025;-49
2022/05/17 01:04:55;;;;;;;4.50;2.30;;;15.30;99.90;;;;;;5053448;28;20108;-50
2022/05/17 01:07:25;;;;;;;3.50;2.15;;;15.20;99.90;;;;;;5053477;28;20117;-52
2022/05/17 01:09:51;;;;;;;5.15;2.80;;;15.20;99.90;;;;;;5053402;28;20036;-47
2022/05/17 01:12:17;;;;;;;5.32;2.58;;;15.20;99.90;;;;;;5053366;28;20017;-50
2022/05/17 01:14:57;;;;;;;6.43;3.33;;;15.20;99.90;;;;;;5053250;28;20021;-50
2022/05/17 01:17:28;;;;;;;2.95;2.20;;;15.10;99.90;;;;;;5053563;28;20434;-51
2022/05/17 01:19:55;;;;;;;4.72;2.75;;;15.20;99.90;;;;;;5053108;28;20033;-50
2022/05/17 01:22:21;;;;;;;6.20;2.72;;;15.20;99.90;;;;;;5052958;28;20053;-50
2022/05/17 01:24:48;;;;;;;6.13;2.90;;;15.20;99.90;;;;;;5053110;28;20110;-49
2022/05/17 01:27:24;;;;;;;7.75;2.85;;;15.20;99.90;;;;;;5053256;28;20017;-54
2022/05/17 01:29:51;;;;;;;5.80;2.58;;;15.10;99.90;;;;;;5052873;28;20029;-49
2022/05/17 01:32:17;;;;;;;3.47;2.60;;;15.20;99.90;;;;;;5053135;28;20028;-52
2022/05/17 01:34:44;;;;;;;4.18;3.05;;;15.20;99.90;;;;;;5052858;28;20036;-50
2022/05/17 01:37:11;;;;;;;9.90;2.80;;;15.10;99.90;;;;;;5051575;28;20112;-48
2022/05/17 01:39:38;;;;;;;5.85;2.70;;;15.20;99.90;;;;;;5052024;28;20028;-52
2022/05/17 01:42:04;;;;;;;8.20;3.40;;;15.20;99.90;;;;;;5052920;28;20024;-48
2022/05/17 01:44:31;;;;;;;5.43;2.55;;;15.20;99.90;;;;;;5052718;28;20486;-50
2022/05/17 01:46:57;;;;;;;4.68;2.35;;;15.10;99.90;;;;;;5052775;28;20644;-46
2022/05/17 01:49:22;;;;;;;4.75;2.75;;;15.10;99.90;;;;;;5052685;28;20063;-49
2022/05/17 01:51:48;;;;;;;3.28;2.97;;;15.10;99.90;;;;;;5052512;28;20168;-50
2022/05/17 01:54:14;;;;;;;4.43;3.22;;;15.10;99.90;;;;;;5052705;28;20476;-54
2022/05/17 01:56:40;;;;;;;5.63;2.92;;;15.10;99.90;;;;;;5052409;28;20100;-49
2022/05/17 01:59:05;;;;;;;3.85;2.50;;;15.10;99.90;;;;;;5052476;28;20052;-52
2022/05/17 02:01:31;;;;;;;4.90;2.85;;;15.10;99.90;;;;;;5052341;28;20040;-51
2022/05/17 02:03:57;;;;;;;5.00;2.90;;;15.10;99.90;;;;;;5052498;28;20036;-50
2022/05/17 02:06:23;;;;;;;4.85;3.03;;;15.10;99.90;;;;;;5052294;28;20029;-47
2022/05/17 02:08:49;;;;;;;4.70;3.33;;;15.10;99.90;;;;;;5051451;28;20109;-52
2022/05/17 02:11:15;;;;;;;5.20;2.88;;;15.10;99.90;;;;;;5051738;28;20056;-51
2022/05/17 02:13:41;;;;;;;3.47;3.08;;;15.10;99.90;;;;;;5051744;28;20607;-51
2022/05/17 02:16:09;;;;;;;3.60;3.28;;;15.10;99.90;;;;;;5052190;28;20717;-52
2022/05/17 02:18:35;;;;;;;4.85;2.72;;;15.10;99.90;;;;;;5052107;28;20039;-50
2022/05/17 02:21:01;;;;;;;3.85;3.47;;;15.10;99.90;;;;;;5050690;28;20087;-50
2022/05/17 02:23:27;;;;;;;4.38;3.25;;;15.10;99.90;;;;;;5051905;28;20127;-51
2022/05/17 02:25:53;;;;;;;3.92;3.05;;;15.10;99.90;;;;;;5052015;28;20039;-53
2022/05/17 02:28:20;;;;;;;4.38;3.17;;;15.10;99.90;;;;;;5052045;28;20049;-51
2022/05/17 02:30:46;;;;;;;3.83;3.00;;;15.10;99.90;;;;;;5051774;28;20017;-49
2022/05/17 02:33:13;;;;;;;5.47;3.75;;;15.10;99.90;;;;;;5052086;28;20023;-52
2022/05/17 02:35:39;;;;;;;6.88;3.70;;;15.10;99.90;;;;;;5050431;28;20045;-54
2022/05/17 02:38:05;;;;;;;11.85;3.90;;;15.00;99.90;;;;;;5051916;28;20381;-49
2022/05/17 02:40:31;;;;;;;6.38;3.72;;;15.00;99.90;;;;;;5051842;28;20033;-48
2022/05/17 02:42:57;;;;;;;5.03;3.60;;;15.00;99.90;;;;;;5051616;28;20031;-51
2022/05/17 02:45:23;;;;;;;8.50;4.07;;;15.10;99.90;;;;;;5051646;28;20025;-48
2022/05/17 02:47:48;;;;;;;12.50;3.38;;;15.10;99.90;;;;;;5051609;28;20036;-48
2022/05/17 02:50:15;;;;;;;7.47;3.45;;;15.00;99.90;;;;;;5051584;28;20079;-54
2022/05/17 02:52:41;;;;;;;7.47;3.53;;;15.10;99.90;;;;;;5051543;28;20026;-48
2022/05/17 02:55:08;;;;;;;6.20;3.55;;;15.10;99.90;;;;;;5051901;28;20106;-50
2022/05/17 02:57:34;;;;;;;7.65;4.00;;;15.10;99.90;;;;;;5050036;28;20118;-49
2022/05/17 03:00:00;;;;;;;13.05;4.28;;;15.10;99.90;;;;;;5051522;28;20028;-48
2022/05/17 03:02:26;;;;;;;9.45;3.58;;;15.10;99.90;;;;;;5051498;28;20039;-50
2022/05/17 03:04:52;;;;;;;9.95;3.72;;;15.10;99.90;;;;;;5051214;28;20107;-51
2022/05/17 03:07:18;;;;;;;6.75;3.97;;;15.10;99.90;;;;;;5051412;28;20151;-52
2022/05/17 03:09:43;;;;;;;9.93;4.60;;;15.20;99.90;;;;;;5050667;28;20038;-52
2022/05/17 03:12:10;;;;;;;8.38;3.58;;;15.20;99.90;;;;;;5050095;28;20467;-54
2022/05/17 03:14:36;;;;;;;6.38;4.10;;;15.20;99.90;;;;;;5049926;28;20021;-51
2022/05/17 03:17:11;;;;;;;4.10;3.67;;;15.10;99.90;;;;;;5050127;28;20449;-49
2022/05/17 03:19:37;;;;;;;6.15;4.10;;;15.20;99.90;;;;;;5050154;28;20028;-49
2022/05/17 03:22:03;;;;;;;9.80;3.97;;;15.20;99.90;;;;;;5049427;28;20041;-48
2022/05/17 03:24:29;;;;;;;11.90;4.00;;;15.20;99.90;;;;;;5050455;28;20491;-49
2022/05/17 03:26:55;;;;;;;9.77;4.38;;;15.30;99.90;;;;;;5050005;28;20044;-50
2022/05/17 03:29:20;;;;;;;10.38;4.55;;;15.30;99.90;;;;;;5050374;28;20029;-48
2022/05/17 03:31:46;;;;;;;8.77;4.07;;;15.30;99.90;;;;;;5050421;28;20029;-49
2022/05/17 03:34:11;;;;;;;6.72;4.13;;;15.30;99.90;;;;;;5051456;28;20025;-48
2022/05/17 03:36:37;;;;;;;8.20;4.57;;;15.40;99.90;;;;;;5051045;28;20123;-52
2022/05/17 03:39:03;;;;;;;7.47;4.25;;;15.30;99.90;;;;;;5050607;28;20021;-52
2022/05/17 03:41:28;;;;;;;7.65;3.90;;;15.30;99.90;;;;;;5051165;28;20116;-48
2022/05/17 03:43:54;;;;;;;14.55;6.22;;;15.30;99.90;;;;;;5050873;28;20033;-55
2022/05/17 03:46:20;;;;;;;6.93;5.18;;;15.30;99.90;;;;;;5050992;28;20094;-52
2022/05/17 03:48:46;;;;;;;9.95;5.00;;;15.20;99.90;;;;;;5050925;28;20017;-52
2022/05/17 03:51:15;;;;;;;7.47;4.90;;;15.30;99.90;;;;;;5050931;28;20090;-51
2022/05/17 03:53:41;;;;;;;15.35;4.90;;;15.30;99.90;;;;;;5050997;28;20021;-50
2022/05/17 03:56:07;;;;;;;6.10;4.63;;;15.30;99.90;;;;;;5051181;28;20025;-50
2022/05/17 03:58:33;;;;;;;10.15;5.32;;;15.30;99.90;;;;;;5050770;28;20025;-52
2022/05/17 04:00:58;;;;;;;10.48;5.28;;;15.40;99.90;;;;;;5050257;28;20032;-49
2022/05/17 04:03:24;;;;;;;11.27;5.47;;;15.40;99.90;;;;;;5053351;28;20468;-52
2022/05/17 04:05:50;;;;;;;7.18;5.82;;;15.30;99.90;;;;;;5053523;28;20029;-49
2022/05/17 04:08:15;;;;;;;6.20;5.15;;;15.30;99.90;;;;;;5054481;28;20053;-53
2022/05/17 04:10:41;;;;;;;15.13;6.10;;;15.30;99.90;;;;;;5054490;28;20108;-52
2022/05/17 04:13:07;;;;;;;17.63;5.90;;;15.20;99.90;;;;;;5054481;28;20021;-51
2022/05/17 04:15:32;;;;;;;15.25;6.47;;;15.20;99.90;;;;;;5054476;28;20037;-50
2022/05/17 04:17:58;;;;;;;7.10;5.63;;;15.20;99.90;;;;;;5054491;28;20031;-47
2022/05/17 04:20:24;;;;;;;9.02;5.90;;;15.20;99.90;;;;;;5054249;28;20025;-52
2022/05/17 04:22:52;;;;;;;8.70;6.25;;;15.20;99.90;;;;;;5054023;28;20607;-51
2022/05/17 04:25:21;;;;;;;15.73;5.85;;;15.30;99.90;;;;;;5054309;28;20025;-52
2022/05/17 04:27:46;;;;;;;18.23;6.70;;;15.30;99.90;;;;;;5053977;28;20021;-48
2022/05/17 04:30:13;;;;;;;10.00;5.38;;;15.30;99.90;;;;;;5054145;28;20040;-48
2022/05/17 04:32:39;;;;;;;10.57;5.10;;;15.30;99.90;;;;;;5053872;28;20021;-52
2022/05/17 04:35:05;;;;;;;9.88;5.18;;;15.30;99.90;;;;;;5054285;28;20025;-51
2022/05/17 04:37:32;;;;;;;8.95;5.28;;;15.30;99.90;;;;;;5054057;28;20029;-52
2022/05/17 04:39:58;;;;;;;10.35;6.00;;;15.30;99.90;;;;;;5053820;28;20497;-52
2022/05/17 04:42:23;;;;;;;10.95;6.80;;;15.30;99.90;;;;;;5053980;28;20044;-53
2022/05/17 04:44:50;;;;;;;10.30;5.38;;;15.30;99.90;;;;;;5053661;28;20130;-49
2022/05/17 04:47:16;;;;;;;11.02;5.28;;;15.30;99.90;;;;;;5053849;28;20013;-49
2022/05/17 04:49:42;;;;;;;10.55;6.55;;;15.30;99.90;;;;;;5053787;28;20364;-48
2022/05/17 04:52:08;;;;;;;12.50;5.65;;;15.30;99.90;;;;;;5053740;28;20029;-51
2022/05/17 04:54:34;;;;;;;12.85;5.40;;;15.30;99.90;;;;;;5053449;28;20506;-52
2022/05/17 04:57:00;;;;;;;14.88;5.97;;;15.40;99.90;;;;;;5053811;28;20029;-51
2022/05/17 04:59:26;;;;;;;10.25;6.60;;;15.50;99.90;;;;;;5053563;28;20029;-49
2022/05/17 05:01:52;;;;;;;7.13;4.55;;;15.40;99.90;;;;;;5053382;28;20652;-54
2022/05/17 05:04:17;;;;;;;8.77;5.55;;;15.50;99.90;;;;;;5053320;28;20091;-51
2022/05/17 05:06:43;;;;;;;7.40;4.97;;;15.50;99.90;;;;;;5053098;28;20029;-55
2022/05/17 05:09:13;;;;;;;12.30;5.43;;;15.50;99.90;;;;;;5057820;28;20043;-47
2022/05/17 05:11:55;;;;;;;7.63;4.78;;;15.60;99.90;;;;;;5065260;28;20024;-50
2022/05/17 05:14:20;;;;;;;13.93;5.75;;;15.60;99.90;;;;;;5072052;28;20581;-47
2022/05/17 05:16:46;;;;;;;10.32;5.05;;;15.60;99.90;;;;;;5073082;28;20036;-49
2022/05/17 05:19:12;;;;;;;7.63;4.50;;;15.60;99.90;;;;;;5071985;28;20025;-47
2022/05/17 05:21:37;;;;;;;10.98;5.70;;;15.60;99.90;;;;;;5072732;28;20035;-49
2022/05/17 05:24:04;;;;;;;11.90;5.32;;;15.60;99.90;;;;;;5072965;28;20063;-49
2022/05/17 05:26:32;;;;;;;8.32;5.68;;;15.70;99.90;;;;;;5070896;28;20048;-47
2022/05/17 05:28:58;;;;;;;11.70;6.07;;;15.80;99.90;;;;;;5072009;28;20017;-48
2022/05/17 05:31:24;;;;;;;7.53;4.95;;;15.80;99.90;;;;;;5071784;28;20536;-49
2022/05/17 05:33:49;;;;;;;16.15;6.78;;;15.90;99.90;;;;;;5071645;28;20554;-49
2022/05/17 05:36:15;;;;;;;17.83;7.25;;;15.90;99.90;;;;;;5071673;28;20380;-48
2022/05/17 05:38:41;;;;;;;12.02;6.45;;;15.80;99.90;;;;;;5071369;28;20391;-52
2022/05/17 05:41:13;;;;;;;8.18;5.63;;;15.80;99.90;;;;;;5071522;28;20067;-51
2022/05/17 05:43:38;;;;;;;19.90;6.40;;;15.90;99.90;;;;;;5071621;28;20052;-50
2022/05/17 05:46:05;;;;;;;8.52;6.20;;;15.90;99.90;;;;;;5071457;28;20067;-52
2022/05/17 05:48:31;;;;;;;15.35;6.60;;;15.90;99.90;;;;;;5071615;28;20029;-54
2022/05/17 05:50:57;;;;;;;8.38;6.22;;;15.80;99.90;;;;;;5072437;28;20017;-52
2022/05/17 05:53:23;;;;;;;16.60;6.88;;;15.80;99.90;;;;;;5072381;28;20087;-52
2022/05/17 05:55:57;;;;;;;9.00;5.88;;;15.80;99.90;;;;;;5071851;28;20025;-53
2022/05/17 05:58:24;;;;;;;13.88;6.32;;;15.80;99.90;;;;;;5072203;28;20023;-49
2022/05/17 06:00:50;;;;;;;10.85;5.85;;;16.00;99.90;;;;;;5072166;28;20025;-55
2022/05/17 06:03:15;;;;;;;12.73;6.10;;;16.00;99.90;;;;;;5072383;28;20363;-50
2022/05/17 06:05:41;;;;;;;9.18;5.70;;;16.10;99.90;;;;;;5070604;28;20021;-51
2022/05/17 06:08:13;;;;;;;10.63;5.80;;;16.00;99.90;;;;;;5072297;28;20021;-50
2022/05/17 06:10:45;;;;;;;5.78;4.80;;;16.10;99.90;;;;;;5072067;28;20017;-50
2022/05/17 06:13:14;;;;;;;12.68;7.22;;;16.00;99.90;;;;;;5072321;28;20359;-50
2022/05/17 06:15:40;;;;;;;15.85;6.28;;;16.00;99.90;;;;;;5070999;28;20074;-49
2022/05/17 06:18:08;;;;;;;10.95;5.75;;;16.10;99.90;;;;;;5069199;28;20025;-47
2022/05/17 06:20:35;;;;;;;9.90;5.07;;;16.10;99.90;;;;;;5070203;28;20029;-53
2022/05/17 06:23:01;;;;;;;9.52;5.47;;;16.20;99.90;;;;;;5070771;28;20458;-50
2022/05/17 06:25:27;;;;;;;11.35;5.40;;;16.20;99.90;;;;;;5070140;28;20100;-53
2022/05/17 06:27:52;;;;;;;10.18;5.80;;;16.30;99.90;;;;;;5071769;28;20021;-52
2022/05/17 06:30:18;;;;;;;11.02;4.97;;;16.20;99.90;;;;;;5072011;28;20104;-51
2022/05/17 06:32:45;;;;;;;10.48;5.07;;;16.30;99.90;;;;;;5071630;28;20025;-49
2022/05/17 06:35:11;;;;;;;12.93;5.30;;;16.40;99.90;;;;;;5071925;28;20478;-52
2022/05/17 06:37:37;;;;;;;10.68;6.15;;;16.30;99.90;;;;;;5071358;28;20094;-47
2022/05/17 06:40:05;;;;;;;14.27;6.32;;;16.40;99.90;;;;;;5070385;28;20029;-47
2022/05/17 06:42:30;;;;;;;22.83;6.03;;;16.50;99.90;;;;;;5070606;28;20483;-46
2022/05/17 06:44:56;;;;;;;11.43;5.72;;;16.40;99.90;;;;;;5070491;28;20067;-51
2022/05/17 06:47:22;;;;;;;12.73;5.93;;;16.40;99.90;;;;;;5070479;28;20024;-48
2022/05/17 06:49:48;;;;;;;12.98;5.65;;;16.50;99.90;;;;;;5070159;28;20020;-47
2022/05/17 06:52:14;;;;;;;11.50;5.70;;;16.60;99.90;;;;;;5070646;28;20358;-50
2022/05/17 06:54:43;;;;;;;15.05;7.05;;;16.60;99.90;;;;;;5070189;28;20364;-49
2022/05/17 06:57:11;;;;;;;30.67;6.28;;;16.70;99.90;;;;;;5070452;28;20344;-49
2022/05/17 06:59:44;;;;;;;13.15;6.38;;;16.80;99.90;;;;;;5070302;28;20082;-53
2022/05/17 07:02:11;;;;;;;16.63;5.80;;;16.90;99.90;;;;;;5070235;28;20376;-53
2022/05/17 07:04:37;;;;;;;19.60;6.30;;;17.00;99.90;;;;;;5071318;28;20033;-51
2022/05/17 07:07:04;;;;;;;9.32;6.05;;;16.90;99.90;;;;;;5071437;28;19915;-48
2022/05/17 07:09:30;;;;;;;13.70;5.40;;;17.00;99.90;;;;;;5071474;28;20023;-52
2022/05/17 07:14:40;;;;;;;22.67;5.82;;;17.30;99.90;;;;;;5071511;28;20035;-52
2022/05/17 07:17:09;;;;;;;11.15;6.15;;;17.60;99.90;;;;;;5071658;28;20024;-51
2022/05/17 07:19:35;;;;;;;12.80;5.90;;;17.70;99.90;;;;;;5071106;28;20032;-54
2022/05/17 07:22:02;;;;;;;18.50;6.57;;;17.50;99.90;;;;;;5068853;28;20052;-54
2022/05/17 07:24:28;;;;;;;15.93;6.80;;;17.50;99.90;;;;;;5071300;28;20028;-54
2022/05/17 07:26:54;;;;;;;9.55;5.68;;;17.40;99.90;;;;;;5070974;28;20017;-52
2022/05/17 07:29:20;;;;;;;13.50;6.43;;;17.60;99.90;;;;;;5071308;28;20017;-51
2022/05/17 07:31:46;;;;;;;39.55;18.98;;;17.50;99.90;;;;;;5071259;28;20031;-54
2022/05/17 07:34:12;;;;;;;57.42;26.25;;;17.60;99.90;;;;;;5071423;28;20501;-51
2022/05/17 07:36:39;;;;;;;20.27;10.23;;;17.70;99.90;;;;;;5071137;28;20476;-50
2022/05/17 07:39:06;;;;;;;20.73;11.85;;;17.70;99.90;;;;;;5074761;28;20108;-51
2022/05/17 07:41:32;;;;;;;11.63;8.02;;;17.70;99.90;;;;;;5075034;28;20028;-50
2022/05/17 07:43:58;;;;;;;10.07;6.15;;;18.00;99.90;;;;;;5075283;28;20376;-49
2022/05/17 07:46:23;;;;;;;12.10;6.30;;;17.80;99.90;;;;;;5074798;28;20671;-51
2022/05/17 07:48:49;;;;;;;12.13;6.55;;;17.80;99.90;;;;;;5074762;28;20028;-51
2022/05/17 07:51:15;;;;;;;9.88;5.93;;;17.90;99.90;;;;;;5074681;28;20472;-48
2022/05/17 07:53:41;;;;;;;12.50;5.90;;;17.80;99.90;;;;;;5073625;28;20221;-49
2022/05/17 07:56:06;;;;;;;20.35;6.00;;;17.90;99.90;;;;;;5073980;28;20019;-49
2022/05/17 07:58:32;;;;;;;15.45;6.63;;;17.90;99.90;;;;;;5071897;28;20024;-52
2022/05/17 08:00:58;;;;;;;20.55;7.55;;;17.90;99.90;;;;;;5073586;28;20126;-50
2022/05/17 08:03:24;;;;;;;15.52;7.63;;;17.70;99.90;;;;;;5073594;28;20032;-49
2022/05/17 08:05:52;;;;;;;15.05;7.75;;;17.80;99.90;;;;;;5072818;28;20170;-53
2022/05/17 08:08:18;;;;;;;18.75;9.10;;;17.70;99.90;;;;;;5073132;28;20082;-50
2022/05/17 08:10:44;;;;;;;12.85;8.13;;;17.70;99.90;;;;;;5071354;28;20025;-52
2022/05/17 08:13:10;;;;;;;16.20;8.57;;;17.70;99.90;;;;;;5071687;28;20031;-54
2022/05/17 08:15:35;;;;;;;20.27;9.93;;;17.60;99.90;;;;;;5072501;28;20380;-49
2022/05/17 08:18:02;;;;;;;18.92;9.85;;;17.40;99.90;;;;;;5073028;28;20074;-53
2022/05/17 08:20:29;;;;;;;14.35;9.48;;;17.50;99.90;;;;;;5072896;28;20094;-52
2022/05/17 08:22:54;;;;;;;13.40;9.48;;;17.60;99.90;;;;;;5072753;28;20049;-49
2022/05/17 08:28:06;;;;;;;16.85;9.68;;;17.60;99.90;;;;;;5073203;28;20028;-49
2022/05/17 08:30:33;;;;;;;17.88;10.82;;;17.70;99.90;;;;;;5072878;28;20024;-51
2022/05/17 08:33:16;;;;;;;18.77;10.90;;;17.80;99.90;;;;;;5073090;28;20024;-53
2022/05/17 08:36:02;;;;;;;17.92;11.43;;;17.60;99.90;;;;;;5072715;28;20027;-50
2022/05/17 08:38:33;;;;;;;23.25;11.27;;;17.60;99.90;;;;;;5072837;28;20441;-54
2022/05/17 08:41:14;;;;;;;21.63;9.98;;;17.60;99.90;;;;;;5072688;28;20021;-52
2022/05/17 08:43:45;;;;;;;16.70;9.85;;;17.70;99.90;;;;;;5072566;28;20028;-53
2022/05/17 08:46:30;;;;;;;14.80;9.50;;;17.60;99.90;;;;;;5072390;28;20492;-52
2022/05/17 08:49:25;;;;;;;13.05;9.05;;;17.70;99.90;;;;;;5072224;28;20119;-50
2022/05/17 08:52:32;;;;;;;16.67;8.82;;;18.00;99.90;;;;;;5072234;28;20670;-51
2022/05/17 08:55:01;;;;;;;22.40;9.30;;;18.10;99.90;;;;;;5071320;28;20511;-49
2022/05/17 08:57:30;;;;;;;15.68;9.02;;;17.80;99.90;;;;;;5072587;28;20387;-52
2022/05/17 08:59:59;;;;;;;19.20;8.82;;;17.90;99.90;;;;;;5072391;28;20020;-51
2022/05/17 09:02:40;;;;;;;17.15;9.75;;;17.90;99.90;;;;;;5072610;28;20021;-49
2022/05/17 09:05:29;;;;;;;17.42;8.20;;;18.00;99.90;;;;;;5072116;28;20036;-50
2022/05/17 09:08:04;;;;;;;21.67;8.95;;;18.20;99.90;;;;;;5068946;28;20045;-49
2022/05/17 09:10:40;;;;;;;17.42;8.75;;;18.20;99.90;;;;;;5072408;28;20495;-50
2022/05/17 09:13:35;;;;;;;11.82;7.25;;;18.10;99.90;;;;;;5072247;28;20073;-50
2022/05/17 09:16:01;;;;;;;12.50;7.97;;;18.20;99.90;;;;;;5072596;28;20079;-49
2022/05/17 09:18:30;;;;;;;18.83;9.02;;;18.10;99.90;;;;;;5072128;28;20023;-47
2022/05/17 09:20:56;;;;;;;12.18;7.35;;;17.80;99.90;;;;;;5072003;28;20068;-49
2022/05/17 09:23:21;;;;;;;14.35;9.02;;;17.90;99.90;;;;;;5072107;28;20076;-55
2022/05/17 09:26:07;;;;;;;14.57;7.60;;;17.90;99.90;;;;;;5071664;28;20024;-50
2022/05/17 09:28:50;;;;;;;36.75;8.55;;;18.00;99.90;;;;;;5071804;28;20032;-51
2022/05/17 09:31:22;;;;;;;12.07;8.30;;;17.90;99.90;;;;;;5072441;28;20027;-51
2022/05/17 09:33:49;;;;;;;13.02;8.90;;;18.00;99.90;;;;;;5072809;28;20027;-53
2022/05/17 09:36:24;;;;;;;14.63;8.65;;;18.10;99.90;;;;;;5071850;28;20020;-51
2022/05/17 09:38:52;;;;;;;17.02;9.10;;;18.40;99.90;;;;;;5071496;28;20032;-51
2022/05/17 09:41:25;;;;;;;12.38;8.32;;;18.60;99.90;;;;;;5070608;28;20388;-51
2022/05/17 09:44:13;;;;;;;12.15;7.95;;;18.80;99.90;;;;;;5071234;28;20032;-55
2022/05/17 09:46:48;;;;;;;13.68;7.28;;;18.90;99.90;;;;;;5071307;28;20026;-49
2022/05/17 09:52:32;;;;;;;14.35;8.52;;;19.40;99.90;;;;;;5072017;28;20055;-50
2022/05/17 09:55:21;;;;;;;19.05;7.85;;;19.30;99.90;;;;;;5072288;28;20384;-50
2022/05/17 09:57:58;;;;;;;12.45;8.02;;;19.60;99.90;;;;;;5071285;28;20360;-49
2022/05/17 10:00:31;;;;;;;17.70;8.07;;;19.60;99.90;;;;;;5070574;28;20101;-48
2022/05/17 10:03:01;;;;;;;9.18;6.97;;;20.30;99.90;;;;;;5071633;28;20119;-53
2022/05/17 10:05:30;;;;;;;8.52;5.68;;;20.10;99.90;;;;;;5071164;28;20476;-48
2022/05/17 10:07:57;;;;;;;19.73;7.45;;;20.40;99.90;;;;;;5070880;28;20537;-53
2022/05/17 10:10:30;;;;;;;14.02;5.55;;;20.10;99.90;;;;;;5071061;28;20086;-48
2022/05/17 10:13:14;;;;;;;11.77;5.28;;;20.00;99.90;;;;;;5070935;28;20032;-47
2022/05/17 10:15:42;;;;;;;11.35;6.30;;;19.90;99.90;;;;;;5070710;28;20025;-49
2022/05/17 10:18:35;;;;;;;16.40;8.82;;;19.60;99.90;;;;;;5070985;28;20092;-51
2022/05/17 10:21:23;;;;;;;12.75;6.55;;;19.70;99.90;;;;;;5054809;28;20044;-52
2022/05/17 10:23:58;;;;;;;12.15;6.78;;;20.50;99.90;;;;;;5039237;28;20497;-50
2022/05/17 10:26:33;;;;;;;14.32;7.45;;;20.90;99.90;;;;;;5038653;28;20076;-48
2022/05/17 10:29:15;;;;;;;12.82;7.28;;;21.30;99.90;;;;;;5038502;28;20120;-53
2022/05/17 10:31:50;;;;;;;14.57;6.38;;;21.00;99.90;;;;;;5039027;28;20112;-50
2022/05/17 10:34:51;;;;;;;15.20;6.43;;;21.30;99.90;;;;;;5039161;28;20033;-56
2022/05/17 10:37:25;;;;;;;10.00;6.45;;;21.90;99.90;;;;;;5038852;28;20028;-54
2022/05/17 10:40:05;;;;;;;11.43;6.72;;;22.00;99.90;;;;;;5038185;28;20127;-48
2022/05/17 10:42:31;;;;;;;15.93;6.05;;;22.10;99.40;;;;;;5054701;28;20380;-54
2022/05/17 10:44:58;;;;;;;8.82;6.68;;;21.50;99.10;;;;;;5058972;28;20028;-55
2022/05/17 10:47:56;;;;;;;14.48;6.43;;;21.50;99.90;;;;;;5059125;28;20206;-53
2022/05/17 10:50:28;;;;;;;8.18;6.10;;;21.90;99.90;;;;;;5070132;28;20041;-55
2022/05/17 10:52:53;;;;;;;10.45;6.60;;;21.80;99.90;;;;;;5070021;28;20032;-54
2022/05/17 10:55:19;;;;;;;11.57;6.15;;;22.10;99.30;;;;;;5068499;28;20031;-53
2022/05/17 10:57:57;;;;;;;9.38;5.68;;;22.40;98.50;;;;;;5070120;28;20024;-54
2022/05/17 11:00:47;;;;;;;13.50;6.22;;;23.10;98.00;;;;;;5070444;28;20028;-55
2022/05/17 11:03:34;;;;;;;16.42;5.53;;;23.00;96.30;;;;;;5069979;28;20328;-53
2022/05/17 11:06:17;;;;;;;39.78;19.75;;;23.00;95.70;;;;;;5070421;28;20353;-56
2022/05/17 11:09:00;;;;;;;19.40;11.13;;;22.60;95.50;;;;;;5070108;28;20476;-53
2022/05/17 11:11:55;;;;;;;16.30;8.02;;;22.70;97.70;;;;;;5069990;28;20035;-55
2022/05/17 11:14:31;;;;;;;24.42;9.13;;;23.00;97.30;;;;;;5066931;28;20041;-53
2022/05/17 11:17:13;;;;;;;11.70;5.47;;;22.10;96.80;;;;;;5070174;28;20029;-55
2022/05/17 11:20:07;;;;;;;8.55;6.38;;;22.00;96.90;;;;;;5068624;28;20380;-53
2022/05/17 11:22:51;;;;;;;9.15;6.28;;;21.20;97.90;;;;;;5069736;28;20049;-51
2022/05/17 11:25:40;;;;;;;9.68;6.88;;;21.40;99.80;;;;;;5070195;28;20032;-49
2022/05/17 11:28:41;;;;;;;8.88;6.50;;;21.30;99.60;;;;;;5070107;28;20021;-49
2022/05/17 11:31:28;;;;;;;9.85;6.60;;;20.80;99.90;;;;;;5060974;28;20035;-49
2022/05/17 11:34:23;;;;;;;19.27;8.77;;;20.60;99.90;;;;;;5070051;28;20373;-51
2022/05/17 11:36:52;;;;;;;14.30;7.05;;;20.80;99.90;;;;;;5069802;28;20028;-47
2022/05/17 11:39:29;;;;;;;11.20;6.18;;;21.00;99.90;;;;;;5070038;28;20103;-51
2022/05/17 11:42:09;;;;;;;11.07;5.82;;;21.60;99.30;;;;;;5069837;28;20032;-54
2022/05/17 11:45:18;;;;;;;7.03;5.32;;;22.40;99.10;;;;;;5069921;28;20025;-50
2022/05/17 11:47:43;;;;;;;14.88;6.50;;;22.90;96.20;;;;;;5064001;28;20483;-53
2022/05/17 11:50:15;;;;;;;14.00;5.47;;;23.20;97.10;;;;;;5069920;28;20363;-53
2022/05/17 11:52:49;;;;;;;8.80;5.13;;;23.30;94.20;;;;;;5069692;28;20028;-48
2022/05/17 11:55:21;;;;;;;19.90;9.10;;;22.40;95.40;;;;;;5069819;28;20023;-53
2022/05/17 11:57:46;;;;;;;10.85;5.78;;;23.00;97.10;;;;;;5069551;28;20099;-54
2022/05/17 12:00:39;;;;;;;13.45;5.07;;;24.00;93.00;;;;;;5069853;28;20100;-51
2022/05/17 12:03:04;;;;;;;6.10;3.75;;;24.70;91.80;;;;;;5069920;28;20036;-53
2022/05/17 12:05:43;;;;;;;10.85;4.75;;;25.10;91.40;;;;;;5069561;28;20491;-54
2022/05/17 12:08:27;;;;;;;6.15;3.25;;;25.60;88.20;;;;;;5069652;28;20046;-53
2022/05/17 12:11:15;;;;;;;9.93;3.42;;;25.90;87.60;;;;;;5069498;28;20048;-53
2022/05/17 12:14:02;;;;;;;7.28;3.08;;;27.40;78.00;;;;;;5069440;28;20055;-56
2022/05/17 12:16:31;;;;;;;7.57;2.80;;;27.60;79.90;;;;;;5069795;28;20078;-55
2022/05/17 12:19:13;;;;;;;7.28;2.92;;;29.30;74.30;;;;;;5069364;28;20266;-51
2022/05/17 12:21:50;;;;;;;3.05;1.95;;;28.50;67.00;;;;;;5069604;28;20025;-56
2022/05/17 12:24:38;;;;;;;8.35;1.95;;;27.70;69.60;;;;;;5072071;28;20032;-53
2022/05/17 12:27:09;;;;;;;9.23;2.55;;;28.70;65.50;;;;;;5073113;28;20025;-54
2022/05/17 12:32:35;;;;;;;3.70;2.17;;;28.30;61.50;;;;;;5073196;28;20035;-56
2022/05/17 12:35:01;;;;;;;7.78;2.40;;;28.10;62.70;;;;;;5072990;28;20016;-54
2022/05/17 12:37:28;;;;;;;3.17;2.28;;;28.90;59.70;;;;;;5073024;28;20377;-55
2022/05/17 12:43:03;;;;;;;3.42;2.22;;;28.30;61.00;;;;;;5073036;28;20097;-54
2022/05/17 12:45:32;;;;;;;8.43;2.47;;;26.70;61.00;;;;;;5072758;28;20419;-56
2022/05/17 12:48:01;;;;;;;8.77;2.35;;;27.10;61.90;;;;;;5072738;28;20024;-56
2022/05/17 12:50:40;;;;;;;8.38;3.15;;;26.60;60.00;;;;;;5072657;28;20040;-54
2022/05/17 12:53:16;;;;;;;5.07;2.88;;;25.30;63.70;;;;;;5072885;28;20025;-53
2022/05/17 12:56:07;;;;;;;5.68;2.53;;;25.40;64.20;;;;;;5072505;28;20028;-56
2022/05/17 12:58:46;;;;;;;8.38;2.63;;;25.70;64.60;;;;;;5072355;28;20090;-56
2022/05/17 13:01:13;;;;;;;5.78;2.80;;;27.10;62.20;;;;;;5073122;28;20043;-55
2022/05/17 13:03:43;;;;;;;6.80;2.88;;;27.10;61.60;;;;;;5072248;28;20124;-54
2022/05/17 13:06:09;;;;;;;4.75;2.97;;;27.10;58.00;;;;;;5073095;28;20020;-55
2022/05/17 13:08:38;;;;;;;3.05;2.35;;;27.40;60.40;;;;;;5073371;28;20071;-55
2022/05/17 13:11:14;;;;;;;9.05;2.80;;;28.30;58.00;;;;;;5073611;28;20119;-56
2022/05/17 13:13:43;;;;;;;9.32;2.35;;;29.40;56.60;;;;;;5073336;28;20141;-53